Kelowna, Canada
Current Conditions -  °F | °C
As of 3:00 AM on Friday 28 Nov 2014 (Local Time) from CYLW Reporting Station
Overcast Overcast  
Wind Chill: 36°   Ceiling: 6000
Heat Index: 36°   Visibility: 9mi
Dew Point: 36°   Wind: 3mph
Humidity: 100%   Direction: 220°SW
Pressure: 29.41"   Gusts: NA
Location:  49.89°N, 119.5°W
Report Text: CYLW 281100Z AUTO 22003KT 170V240 9SM BKN060 OVC200 02/02 A2941 RMK SLP972
Loading
Personal Weather Stations






























Interactive Weather Map New forecast layout! Learn more

10-Day Weather Forecast

Advertisements
Track Severe Weather on mobile